createdAt,value
2022-08-28T00:00:51.778Z,8.50
2022-08-28T00:03:21.796Z,7.50
2022-08-28T00:05:50.985Z,8.00
2022-08-28T00:08:20.108Z,7.87
2022-08-28T00:10:48.814Z,8.20
2022-08-28T00:13:21.323Z,7.73
2022-08-28T00:15:56.048Z,7.27
2022-08-28T00:18:26.688Z,8.17
2022-08-28T00:20:55.650Z,7.20
2022-08-28T00:23:25.350Z,8.07
2022-08-28T00:25:58.868Z,9.10
2022-08-28T00:28:28.781Z,7.73
2022-08-28T00:31:00.031Z,8.73
2022-08-28T00:33:34.084Z,8.67
2022-08-28T00:36:03.770Z,8.50
2022-08-28T00:38:32.349Z,9.20
2022-08-28T00:41:03.823Z,9.10
2022-08-28T00:43:39.510Z,9.27
2022-08-28T00:46:11.993Z,9.97
2022-08-28T00:48:43.010Z,9.93
2022-08-28T00:51:30.171Z,10.00
2022-08-28T00:54:01.383Z,10.63
2022-08-28T00:56:34.145Z,9.83
2022-08-28T00:59:08.741Z,11.23
2022-08-28T01:01:38.801Z,9.93
2022-08-28T01:04:09.236Z,10.43
2022-08-28T01:06:38.643Z,10.13
2022-08-28T01:09:07.247Z,10.23
2022-08-28T01:11:36.226Z,9.77
2022-08-28T01:14:06.738Z,10.47
2022-08-28T01:16:36.199Z,9.83
2022-08-28T01:19:10.848Z,9.10
2022-08-28T01:21:47.691Z,9.50
2022-08-28T01:24:19.554Z,10.40
2022-08-28T01:26:48.280Z,9.90
2022-08-28T01:29:17.504Z,10.07
2022-08-28T01:31:46.024Z,10.00
2022-08-28T01:34:14.737Z,9.77
2022-08-28T01:36:43.948Z,10.80
2022-08-28T01:39:16.171Z,9.87
2022-08-28T01:41:50.140Z,10.17
2022-08-28T01:44:24.341Z,9.77
2022-08-28T01:46:54.366Z,9.80
2022-08-28T01:49:24.745Z,9.90
2022-08-28T01:51:54.825Z,9.17
2022-08-28T01:54:25.989Z,10.20
2022-08-28T01:56:55.912Z,10.03
2022-08-28T01:59:24.446Z,10.93
2022-08-28T02:01:53.978Z,10.23
2022-08-28T02:04:31.831Z,10.47
2022-08-28T02:07:01.332Z,10.33
2022-08-28T02:09:30.232Z,10.23
2022-08-28T02:12:00.079Z,10.33
2022-08-28T02:14:29.168Z,10.83
2022-08-28T02:16:58.123Z,10.73
2022-08-28T02:19:26.700Z,11.27
2022-08-28T02:21:55.150Z,11.53
2022-08-28T02:24:23.916Z,10.90
2022-08-28T02:26:52.449Z,12.37
2022-08-28T02:29:22.235Z,12.43
2022-08-28T02:31:50.696Z,11.33
2022-08-28T02:34:19.296Z,12.17
2022-08-28T02:36:48.014Z,12.43
2022-08-28T02:39:16.548Z,12.93
2022-08-28T02:41:45.220Z,11.93
2022-08-28T02:44:13.717Z,12.53
2022-08-28T02:46:43.500Z,12.50
2022-08-28T02:49:11.977Z,12.47
2022-08-28T02:51:40.784Z,12.27
2022-08-28T02:54:09.328Z,12.90
2022-08-28T02:56:37.997Z,13.90
2022-08-28T02:59:06.521Z,14.10
2022-08-28T03:01:35.365Z,13.60
2022-08-28T03:04:05.678Z,14.10
2022-08-28T03:06:34.253Z,12.63
2022-08-28T03:09:04.728Z,13.27
2022-08-28T03:11:33.852Z,13.23
2022-08-28T03:14:03.441Z,13.77
2022-08-28T03:16:32.381Z,12.97
2022-08-28T03:19:00.985Z,14.47
2022-08-28T03:21:30.869Z,14.20
2022-08-28T03:23:58.721Z,14.90
2022-08-28T03:26:27.159Z,14.50
2022-08-28T03:28:57.553Z,14.77
2022-08-28T03:31:33.280Z,14.60
2022-08-28T03:34:02.186Z,14.43
2022-08-28T03:36:32.252Z,13.93
2022-08-28T03:39:02.175Z,13.63
2022-08-28T03:41:32.146Z,14.37
2022-08-28T03:44:02.128Z,14.60
2022-08-28T03:46:33.358Z,15.33
2022-08-28T03:49:03.763Z,14.43
2022-08-28T03:51:35.306Z,13.90
2022-08-28T03:54:05.689Z,14.50
2022-08-28T03:56:34.554Z,14.80
2022-08-28T03:59:06.268Z,14.60
2022-08-28T04:01:35.042Z,15.23
2022-08-28T04:04:04.369Z,15.37
2022-08-28T04:06:34.216Z,15.20
2022-08-28T04:09:04.958Z,14.80
2022-08-28T04:11:37.787Z,14.47
2022-08-28T04:14:06.343Z,15.20
2022-08-28T04:16:34.789Z,15.83
2022-08-28T04:19:03.757Z,15.37
2022-08-28T04:21:33.583Z,14.10
2022-08-28T04:24:02.043Z,14.13
2022-08-28T04:26:30.615Z,14.67
2022-08-28T04:28:59.097Z,15.20
2022-08-28T04:31:31.787Z,15.20
2022-08-28T04:34:02.096Z,14.97
2022-08-28T04:36:31.203Z,14.90
2022-08-28T04:39:01.028Z,15.27
2022-08-28T04:41:30.473Z,13.43
2022-08-28T04:43:59.602Z,14.33
2022-08-28T04:46:30.971Z,14.53
2022-08-28T04:49:00.476Z,15.30
2022-08-28T04:51:29.458Z,15.50
2022-08-28T04:53:58.223Z,14.47
2022-08-28T04:56:28.223Z,14.77
2022-08-28T04:58:56.781Z,14.73
2022-08-28T05:01:26.036Z,13.50
2022-08-28T05:03:57.668Z,13.73
2022-08-28T05:06:28.143Z,13.43
2022-08-28T05:08:57.999Z,13.33
2022-08-28T05:11:34.031Z,13.33
2022-08-28T05:14:04.854Z,12.53
2022-08-28T05:16:34.001Z,12.90
2022-08-28T05:19:03.159Z,12.80
2022-08-28T05:21:31.583Z,12.50
2022-08-28T05:24:00.480Z,12.07
2022-08-28T05:26:30.509Z,12.17
2022-08-28T05:29:00.453Z,11.80
2022-08-28T05:31:30.228Z,11.70
2022-08-28T05:34:00.114Z,12.83
2022-08-28T05:36:32.805Z,12.93
2022-08-28T05:39:02.339Z,13.17
2022-08-28T05:41:33.304Z,13.37
2022-08-28T05:44:04.750Z,13.17
2022-08-28T05:46:33.611Z,13.83
2022-08-28T05:49:03.943Z,13.90
2022-08-28T05:51:35.253Z,13.70
2022-08-28T05:54:04.375Z,13.40
2022-08-28T05:56:38.820Z,13.50
2022-08-28T05:59:08.889Z,12.77
2022-08-28T06:01:41.542Z,13.33
2022-08-28T06:04:12.800Z,14.30
2022-08-28T06:06:44.914Z,13.60
2022-08-28T06:09:15.968Z,12.93
2022-08-28T06:11:46.571Z,12.63
2022-08-28T06:14:19.617Z,14.40
2022-08-28T06:16:52.130Z,13.70
2022-08-28T06:19:22.788Z,12.93
2022-08-28T06:21:54.929Z,13.67
2022-08-28T06:24:23.748Z,13.10
2022-08-28T06:26:53.647Z,12.60
2022-08-28T06:29:27.469Z,13.47
2022-08-28T06:31:58.147Z,13.10
2022-08-28T06:34:27.462Z,13.17
2022-08-28T06:36:56.307Z,13.17
2022-08-28T06:39:25.249Z,14.27
2022-08-28T06:41:55.140Z,13.43
2022-08-28T06:44:23.870Z,13.07
2022-08-28T06:46:55.056Z,13.60
2022-08-28T06:49:23.676Z,13.53
2022-08-28T06:51:52.246Z,13.87
2022-08-28T06:54:23.108Z,12.17
2022-08-28T06:56:52.118Z,13.30
2022-08-28T06:59:22.015Z,12.63
2022-08-28T07:01:54.447Z,11.57
2022-08-28T07:04:23.147Z,12.37
2022-08-28T07:06:54.666Z,12.40
2022-08-28T07:09:25.029Z,10.93
2022-08-28T07:11:53.525Z,11.53
2022-08-28T07:14:23.492Z,10.57
2022-08-28T07:16:54.560Z,10.73
2022-08-28T07:19:23.032Z,10.70
2022-08-28T07:21:51.591Z,9.17
2022-08-28T07:24:20.398Z,9.17
2022-08-28T07:26:49.146Z,8.93
2022-08-28T07:29:18.396Z,9.20
2022-08-28T07:31:50.108Z,9.40
2022-08-28T07:34:20.432Z,8.67
2022-08-28T07:36:51.825Z,8.10
2022-08-28T07:39:20.935Z,8.07
2022-08-28T07:41:50.352Z,7.77
2022-08-28T07:44:36.524Z,8.43
2022-08-28T07:47:08.821Z,7.57
2022-08-28T07:49:37.586Z,8.20
2022-08-28T07:52:06.988Z,7.53
2022-08-28T07:54:36.192Z,6.93
2022-08-28T07:57:05.172Z,7.60
2022-08-28T07:59:36.649Z,7.00
2022-08-28T08:02:07.606Z,7.53
2022-08-28T08:04:36.213Z,6.63
2022-08-28T08:07:05.769Z,6.57
2022-08-28T08:09:38.976Z,7.43
2022-08-28T08:12:07.887Z,6.37
2022-08-28T08:14:39.093Z,6.67
2022-08-28T08:17:09.555Z,6.53
2022-08-28T08:19:38.185Z,6.50
2022-08-28T08:22:06.997Z,7.00
2022-08-28T08:24:35.581Z,6.83
2022-08-28T08:27:04.515Z,6.40
2022-08-28T08:29:35.963Z,6.53
2022-08-28T08:32:09.199Z,6.47
2022-08-28T08:34:40.408Z,6.70
2022-08-28T08:37:10.488Z,6.73
2022-08-28T08:39:39.106Z,6.23
2022-08-28T08:42:19.053Z,5.87
2022-08-28T08:44:49.684Z,5.87
2022-08-28T08:47:23.931Z,6.00
2022-08-28T08:49:55.581Z,5.37
2022-08-28T08:52:39.134Z,6.33
2022-08-28T08:55:28.553Z,5.30
2022-08-28T08:58:05.324Z,5.63
2022-08-28T09:00:39.243Z,5.77
2022-08-28T09:03:15.548Z,5.63
2022-08-28T09:05:50.518Z,6.00
2022-08-28T09:08:35.941Z,5.83
2022-08-28T09:11:14.511Z,5.73
2022-08-28T09:13:53.512Z,5.67
2022-08-28T09:16:29.804Z,6.50
2022-08-28T09:19:01.978Z,5.70
2022-08-28T09:21:32.951Z,5.67
2022-08-28T09:24:10.952Z,5.80
2022-08-28T09:26:40.782Z,6.13
2022-08-28T09:29:16.985Z,5.43
2022-08-28T09:31:45.674Z,5.57
2022-08-28T09:34:28.766Z,5.20
2022-08-28T09:36:59.678Z,5.70
2022-08-28T09:39:30.812Z,5.20
2022-08-28T09:42:21.892Z,5.40
2022-08-28T09:45:02.001Z,5.70
2022-08-28T09:47:46.974Z,5.33
2022-08-28T09:50:36.782Z,5.10
2022-08-28T09:53:21.052Z,4.30
2022-08-28T09:56:00.163Z,4.63
2022-08-28T09:58:43.908Z,9.10
2022-08-28T10:01:32.096Z,4.60
2022-08-28T10:04:13.804Z,5.10
2022-08-28T10:06:45.606Z,4.20
2022-08-28T10:09:22.578Z,4.30
2022-08-28T10:12:01.398Z,4.07
2022-08-28T10:14:49.743Z,4.40
2022-08-28T10:17:31.065Z,3.67
2022-08-28T10:20:07.265Z,4.17
2022-08-28T10:22:45.139Z,3.50
2022-08-28T10:25:24.869Z,3.57
2022-08-28T10:28:15.584Z,3.13
2022-08-28T10:30:52.586Z,3.47
2022-08-28T10:33:33.223Z,3.37
2022-08-28T10:36:28.742Z,3.40
2022-08-28T10:39:11.376Z,3.40
2022-08-28T10:41:44.764Z,4.00
2022-08-28T10:44:20.975Z,3.80
2022-08-28T10:46:55.550Z,3.17
2022-08-28T10:49:29.760Z,3.60
2022-08-28T10:52:04.729Z,4.10
2022-08-28T10:54:42.029Z,3.53
2022-08-28T10:57:23.752Z,3.40
2022-08-28T10:59:55.154Z,4.07
2022-08-28T11:02:26.559Z,3.23
2022-08-28T11:04:58.867Z,3.30
2022-08-28T11:07:33.566Z,3.67
2022-08-28T11:10:20.969Z,3.57
2022-08-28T11:12:52.557Z,3.20
2022-08-28T11:15:43.347Z,3.97
2022-08-28T11:18:43.187Z,3.40
2022-08-28T11:21:17.020Z,3.60
2022-08-28T11:23:53.210Z,3.60
2022-08-28T11:26:34.563Z,3.40
2022-08-28T11:29:04.520Z,3.87
2022-08-28T11:31:41.612Z,3.60
2022-08-28T11:34:30.465Z,3.77
2022-08-28T11:37:04.165Z,3.40
2022-08-28T11:39:32.745Z,4.03
2022-08-28T11:42:38.846Z,3.87
2022-08-28T11:45:07.893Z,3.60
2022-08-28T11:47:56.309Z,4.57
2022-08-28T11:50:34.413Z,4.30
2022-08-28T11:53:34.650Z,3.47
2022-08-28T11:56:35.895Z,4.07
2022-08-28T11:59:37.663Z,3.70
2022-08-28T12:02:47.958Z,4.53
2022-08-28T12:05:42.477Z,3.57
2022-08-28T12:08:34.653Z,3.97
2022-08-28T12:11:03.149Z,3.80
2022-08-28T12:13:51.873Z,3.73
2022-08-28T12:16:22.421Z,3.27
2022-08-28T12:19:03.975Z,4.10
2022-08-28T12:21:38.710Z,3.80
2022-08-28T12:24:19.692Z,3.40
2022-08-28T12:26:54.284Z,4.20
2022-08-28T12:29:32.636Z,3.90
2022-08-28T12:32:26.018Z,4.80
2022-08-28T12:35:18.421Z,4.20
2022-08-28T12:38:00.023Z,4.47
2022-08-28T12:40:31.081Z,3.43
2022-08-28T12:43:04.247Z,4.40
2022-08-28T12:45:41.737Z,3.97
2022-08-28T12:48:17.821Z,3.70
2022-08-28T12:50:46.448Z,3.97
2022-08-28T12:53:18.037Z,3.50
2022-08-28T12:55:47.618Z,4.30
2022-08-28T12:58:29.932Z,3.80
2022-08-28T13:01:03.788Z,3.83
2022-08-28T13:03:34.292Z,3.58
2022-08-28T13:06:09.284Z,3.50
2022-08-28T13:08:39.021Z,3.80
2022-08-28T13:11:08.051Z,2.95
2022-08-28T13:13:40.884Z,4.10
2022-08-28T13:16:12.692Z,3.58
2022-08-28T13:18:56.588Z,3.67
2022-08-28T13:21:36.186Z,3.50
2022-08-28T13:24:39.692Z,3.22
2022-08-28T13:27:20.449Z,3.38
2022-08-28T13:30:03.669Z,3.55
2022-08-28T13:32:34.496Z,3.33
2022-08-28T13:35:34.940Z,4.28
2022-08-28T13:38:08.237Z,3.40
2022-08-28T13:40:58.117Z,3.85
2022-08-28T13:43:44.389Z,3.15
2022-08-28T13:46:12.817Z,3.08
2022-08-28T13:48:41.050Z,3.50
2022-08-28T13:51:21.197Z,3.40
2022-08-28T13:53:49.780Z,2.88
2022-08-28T13:56:18.180Z,3.17
2022-08-28T13:58:47.838Z,2.97
2022-08-28T14:01:47.213Z,3.63
2022-08-28T14:04:14.577Z,3.75
2022-08-28T14:06:44.950Z,3.38
2022-08-28T14:09:17.487Z,4.60
2022-08-28T14:11:47.851Z,4.20
2022-08-28T14:14:16.589Z,3.20
2022-08-28T14:16:46.071Z,3.28
2022-08-28T14:19:14.662Z,3.35
2022-08-28T14:21:44.356Z,2.92
2022-08-28T14:24:13.004Z,4.03
2022-08-28T14:26:42.212Z,3.53
2022-08-28T14:29:13.363Z,5.97
2022-08-28T14:31:43.763Z,3.67
2022-08-28T14:34:15.474Z,3.85
2022-08-28T14:36:45.585Z,3.47
2022-08-28T14:39:14.859Z,2.95
2022-08-28T14:41:46.552Z,3.22
2022-08-28T14:44:15.573Z,3.38
2022-08-28T14:46:46.622Z,3.13
2022-08-28T14:49:17.604Z,2.90
2022-08-28T14:51:49.894Z,2.95
2022-08-28T14:54:21.886Z,2.95
2022-08-28T14:56:51.664Z,2.80
2022-08-28T14:59:24.800Z,3.13
2022-08-28T15:01:55.292Z,3.08
2022-08-28T15:04:26.238Z,2.70
2022-08-28T15:07:00.580Z,2.88
2022-08-28T15:09:29.385Z,3.13
2022-08-28T15:11:58.293Z,3.55
2022-08-28T15:14:27.971Z,3.05
2022-08-28T15:16:56.171Z,3.08
2022-08-28T15:19:25.283Z,3.17
2022-08-28T15:21:57.775Z,3.40
2022-08-28T15:24:30.816Z,3.35
2022-08-28T15:26:59.824Z,3.40
2022-08-28T15:29:30.049Z,3.22
2022-08-28T15:32:00.639Z,3.70
2022-08-28T15:34:29.751Z,2.95
2022-08-28T15:36:59.949Z,3.75
2022-08-28T15:39:47.503Z,5.07
2022-08-28T15:42:16.087Z,3.37
2022-08-28T15:44:44.629Z,3.57
2022-08-28T15:47:14.811Z,3.87
2022-08-28T15:49:48.679Z,3.50
2022-08-28T15:52:19.938Z,5.20
2022-08-28T15:54:49.609Z,3.27
2022-08-28T15:57:18.129Z,4.67
2022-08-28T15:59:50.052Z,4.80
2022-08-28T16:02:20.658Z,8.77
2022-08-28T16:04:49.790Z,7.80
2022-08-28T16:07:21.879Z,18.27
2022-08-28T16:09:51.738Z,5.43
2022-08-28T16:12:20.545Z,4.27
2022-08-28T16:14:49.937Z,4.47
2022-08-28T16:17:18.846Z,3.97
2022-08-28T16:19:48.281Z,4.60
2022-08-28T16:22:20.342Z,4.53
2022-08-28T16:24:48.601Z,5.00
2022-08-28T16:27:17.004Z,4.30
2022-08-28T16:29:45.939Z,4.57
2022-08-28T16:32:14.947Z,4.10
2022-08-28T16:34:44.688Z,4.33
2022-08-28T16:37:13.530Z,4.13
2022-08-28T16:39:48.108Z,4.07
2022-08-28T16:42:17.257Z,3.30
2022-08-28T16:44:46.233Z,4.60
2022-08-28T16:47:14.534Z,3.73
2022-08-28T16:49:42.685Z,3.77
2022-08-28T16:52:11.048Z,3.80
2022-08-28T16:54:48.529Z,4.40
2022-08-28T16:57:18.808Z,8.07
2022-08-28T16:59:47.657Z,8.53
2022-08-28T17:02:25.075Z,4.30
2022-08-28T17:04:58.102Z,4.70
2022-08-28T17:07:26.221Z,4.57
2022-08-28T17:09:54.436Z,3.20
2022-08-28T17:12:24.075Z,3.63
2022-08-28T17:14:52.211Z,3.10
2022-08-28T17:17:20.437Z,3.80
2022-08-28T17:19:48.657Z,3.67
2022-08-28T17:22:33.967Z,3.83
2022-08-28T17:25:07.633Z,6.30
2022-08-28T17:27:38.375Z,3.40
2022-08-28T17:30:08.946Z,6.37
2022-08-28T17:32:37.944Z,6.47
2022-08-28T17:35:08.771Z,6.60
2022-08-28T17:37:37.952Z,7.20
2022-08-28T17:40:09.563Z,6.47
2022-08-28T17:42:41.619Z,4.20
2022-08-28T17:45:11.529Z,3.20
2022-08-28T17:47:40.311Z,3.37
2022-08-28T17:50:10.172Z,3.87
2022-08-28T17:52:39.636Z,8.37
2022-08-28T17:55:09.183Z,3.60
2022-08-28T17:57:40.890Z,3.50
2022-08-28T18:00:14.178Z,3.70
2022-08-28T18:02:42.420Z,3.50
2022-08-28T18:05:13.361Z,3.47
2022-08-28T18:07:41.981Z,3.93
2022-08-28T18:10:12.127Z,2.80
2022-08-28T18:12:42.853Z,4.53
2022-08-28T18:15:14.893Z,3.73
2022-08-28T18:17:48.091Z,3.27
2022-08-28T18:20:16.310Z,3.07
2022-08-28T18:22:44.460Z,3.27
2022-08-28T18:25:33.260Z,2.83
2022-08-28T18:28:04.819Z,3.43
2022-08-28T18:30:33.804Z,3.40
2022-08-28T18:33:04.941Z,3.17
2022-08-28T18:35:33.221Z,2.87
2022-08-28T18:38:02.479Z,3.57
2022-08-28T18:40:31.304Z,3.60
2022-08-28T18:42:59.884Z,3.20
2022-08-28T18:45:31.434Z,3.70
2022-08-28T18:48:00.504Z,3.67
2022-08-28T18:50:30.942Z,4.13
2022-08-28T18:53:00.245Z,3.87
2022-08-28T18:55:32.152Z,3.53
2022-08-28T18:58:02.776Z,3.70
2022-08-28T19:00:33.042Z,3.23
2022-08-28T19:03:01.476Z,3.40
2022-08-28T19:05:30.223Z,3.43
2022-08-28T19:08:01.696Z,3.67
2022-08-28T19:10:34.746Z,3.77
2022-08-28T19:13:04.741Z,3.47
2022-08-28T19:15:37.953Z,3.87
2022-08-28T19:18:06.585Z,3.70
2022-08-28T19:20:35.600Z,3.57
2022-08-28T19:23:03.768Z,3.63
2022-08-28T19:25:32.578Z,3.40
2022-08-28T19:28:03.084Z,4.07
2022-08-28T19:30:36.256Z,3.67
2022-08-28T19:33:06.379Z,3.53
2022-08-28T19:35:34.835Z,3.70
2022-08-28T19:38:03.536Z,3.30
2022-08-28T19:40:33.679Z,3.53
2022-08-28T19:43:02.276Z,3.33
2022-08-28T19:45:35.460Z,3.60
2022-08-28T19:48:04.224Z,3.40
2022-08-28T19:50:32.563Z,4.00
2022-08-28T19:53:00.811Z,3.37
2022-08-28T19:55:29.934Z,4.00
2022-08-28T19:57:58.677Z,3.77
2022-08-28T20:00:29.563Z,3.97
2022-08-28T20:02:59.083Z,3.70
2022-08-28T20:05:27.336Z,3.87
2022-08-28T20:07:55.504Z,4.03
2022-08-28T20:10:23.806Z,4.17
2022-08-28T20:12:51.921Z,3.93
2022-08-28T20:15:20.998Z,3.40
2022-08-28T20:17:50.337Z,4.57
2022-08-28T20:20:26.708Z,3.53
2022-08-28T20:22:57.554Z,4.60
2022-08-28T20:25:25.855Z,4.13
2022-08-28T20:27:56.413Z,4.17
2022-08-28T20:30:26.524Z,4.33
2022-08-28T20:32:54.719Z,4.03
2022-08-28T20:35:24.904Z,4.40
2022-08-28T20:37:55.829Z,4.43
2022-08-28T20:40:24.517Z,4.10
2022-08-28T20:42:52.792Z,5.07
2022-08-28T20:45:22.036Z,4.70
2022-08-28T20:47:50.140Z,3.80
2022-08-28T20:50:19.489Z,4.70
2022-08-28T20:52:49.027Z,4.83
2022-08-28T20:55:17.349Z,4.30
2022-08-28T20:57:45.534Z,4.90
2022-08-28T21:00:14.951Z,5.40
2022-08-28T21:02:43.045Z,5.63
2022-08-28T21:05:11.556Z,5.20
2022-08-28T21:07:39.761Z,5.40
2022-08-28T21:10:10.146Z,4.93
2022-08-28T21:12:40.353Z,5.00
2022-08-28T21:15:12.976Z,5.00
2022-08-28T21:17:42.244Z,5.00
2022-08-28T21:20:15.594Z,4.73
2022-08-28T21:22:44.332Z,4.43
2022-08-28T21:25:15.737Z,4.30
2022-08-28T21:27:44.195Z,4.60
2022-08-28T21:30:17.146Z,4.83
2022-08-28T21:32:46.469Z,4.23
2022-08-28T21:35:19.007Z,4.33
2022-08-28T21:37:47.501Z,3.80
2022-08-28T21:40:17.387Z,4.03
2022-08-28T21:42:45.655Z,3.80
2022-08-28T21:45:14.528Z,4.10
2022-08-28T21:47:44.219Z,3.70
2022-08-28T21:50:13.093Z,3.80
2022-08-28T21:52:41.441Z,3.40
2022-08-28T21:55:13.463Z,3.70
2022-08-28T21:57:44.651Z,3.60
2022-08-28T22:00:18.842Z,3.27
2022-08-28T22:02:47.995Z,3.17
2022-08-28T22:05:18.001Z,3.70
2022-08-28T22:07:46.542Z,3.50
2022-08-28T22:10:15.072Z,3.93
2022-08-28T22:12:44.664Z,3.57
2022-08-28T22:15:13.165Z,3.73
2022-08-28T22:17:41.495Z,3.43
2022-08-28T22:20:11.143Z,3.57
2022-08-28T22:22:56.933Z,3.37
2022-08-28T22:25:25.366Z,3.43
2022-08-28T22:27:54.936Z,3.37
2022-08-28T22:30:24.176Z,3.57
2022-08-28T22:32:52.483Z,3.50
2022-08-28T22:35:20.737Z,3.27
2022-08-28T22:37:48.981Z,3.50
2022-08-28T22:40:18.306Z,3.27
2022-08-28T22:42:47.365Z,3.17
2022-08-28T22:45:17.347Z,3.47
2022-08-28T22:47:46.063Z,3.10
2022-08-28T22:50:14.208Z,3.63
2022-08-28T22:52:43.236Z,3.57
2022-08-28T22:55:13.485Z,3.80
2022-08-28T22:57:42.136Z,3.60
2022-08-28T23:00:17.593Z,3.90
2022-08-28T23:02:46.172Z,3.40
2022-08-28T23:05:15.566Z,4.03
2022-08-28T23:07:44.457Z,3.33
2022-08-28T23:10:14.568Z,4.00
2022-08-28T23:12:43.617Z,3.40
2022-08-28T23:15:18.204Z,3.13
2022-08-28T23:17:47.218Z,3.30
2022-08-28T23:20:22.572Z,3.60
2022-08-28T23:22:53.270Z,3.27
2022-08-28T23:25:25.717Z,3.37
2022-08-28T23:27:55.895Z,3.70
2022-08-28T23:30:26.730Z,2.87
2022-08-28T23:32:55.498Z,3.90
2022-08-28T23:35:24.501Z,3.73
2022-08-28T23:37:52.706Z,4.40
2022-08-28T23:40:24.636Z,3.80
2022-08-28T23:42:54.172Z,3.67
2022-08-28T23:45:22.884Z,3.50
2022-08-28T23:47:52.954Z,3.60
2022-08-28T23:50:24.133Z,3.27
2022-08-28T23:52:53.381Z,3.63
2022-08-28T23:55:22.388Z,3.77
2022-08-28T23:57:52.283Z,3.80
